sensor_id;sensor_type;location;lat;lon;timestamp;temperature;humidity
24446;DHT22;13347;50.984;5.822;2023-04-30T00:00:12;6.90;99.90
24446;DHT22;13347;50.984;5.822;2023-04-30T00:02:39;7.00;99.90
24446;DHT22;13347;50.984;5.822;2023-04-30T00:05:06;6.90;99.90
24446;DHT22;13347;50.984;5.822;2023-04-30T00:07:33;6.80;99.90
24446;DHT22;13347;50.984;5.822;2023-04-30T00:10:01;6.80;99.90
24446;DHT22;13347;50.984;5.822;2023-04-30T00:12:29;6.70;99.90
24446;DHT22;13347;50.984;5.822;2023-04-30T00:14:56;6.70;99.90
24446;DHT22;13347;50.984;5.822;2023-04-30T00:17:23;6.70;99.90
24446;DHT22;13347;50.984;5.822;2023-04-30T00:19:50;6.80;99.90
24446;DHT22;13347;50.984;5.822;2023-04-30T00:22:17;6.80;99.90
24446;DHT22;13347;50.984;5.822;2023-04-30T00:24:44;6.70;99.90
24446;DHT22;13347;50.984;5.822;2023-04-30T00:27:13;6.50;99.90
24446;DHT22;13347;50.984;5.822;2023-04-30T00:29:39;6.50;99.90
24446;DHT22;13347;50.984;5.822;2023-04-30T00:32:06;6.40;99.90
24446;DHT22;13347;50.984;5.822;2023-04-30T00:34:33;6.30;99.90
24446;DHT22;13347;50.984;5.822;2023-04-30T00:37:00;6.40;99.90
24446;DHT22;13347;50.984;5.822;2023-04-30T00:39:28;6.40;99.90
24446;DHT22;13347;50.984;5.822;2023-04-30T00:41:55;6.40;99.90
24446;DHT22;13347;50.984;5.822;2023-04-30T00:44:23;6.30;99.90
24446;DHT22;13347;50.984;5.822;2023-04-30T00:46:50;6.30;99.90
24446;DHT22;13347;50.984;5.822;2023-04-30T00:49:17;6.20;99.90
24446;DHT22;13347;50.984;5.822;2023-04-30T00:51:44;6.10;99.90
24446;DHT22;13347;50.984;5.822;2023-04-30T00:54:11;6.10;99.90
24446;DHT22;13347;50.984;5.822;2023-04-30T00:56:38;6.10;99.90
24446;DHT22;13347;50.984;5.822;2023-04-30T00:59:05;6.30;99.90
24446;DHT22;13347;50.984;5.822;2023-04-30T01:01:33;6.40;99.90
24446;DHT22;13347;50.984;5.822;2023-04-30T01:04:00;6.40;99.90
24446;DHT22;13347;50.984;5.822;2023-04-30T01:06:27;6.40;99.90
24446;DHT22;13347;50.984;5.822;2023-04-30T01:08:54;6.40;99.90
24446;DHT22;13347;50.984;5.822;2023-04-30T01:11:25;6.40;99.90
24446;DHT22;13347;50.984;5.822;2023-04-30T01:13:56;6.40;99.90
24446;DHT22;13347;50.984;5.822;2023-04-30T01:16:25;6.40;99.90
24446;DHT22;13347;50.984;5.822;2023-04-30T01:18:55;6.40;99.90
24446;DHT22;13347;50.984;5.822;2023-04-30T01:21:23;6.30;99.90
24446;DHT22;13347;50.984;5.822;2023-04-30T01:24:05;6.40;99.90
24446;DHT22;13347;50.984;5.822;2023-04-30T01:26:42;6.40;99.90
24446;DHT22;13347;50.984;5.822;2023-04-30T01:29:16;6.30;99.90
24446;DHT22;13347;50.984;5.822;2023-04-30T01:31:44;6.20;99.90
24446;DHT22;13347;50.984;5.822;2023-04-30T01:34:11;6.10;99.90
24446;DHT22;13347;50.984;5.822;2023-04-30T01:36:42;6.10;99.90
24446;DHT22;13347;50.984;5.822;2023-04-30T01:39:18;6.10;99.90
24446;DHT22;13347;50.984;5.822;2023-04-30T01:41:48;6.10;99.90
24446;DHT22;13347;50.984;5.822;2023-04-30T01:44:23;6.10;99.90
24446;DHT22;13347;50.984;5.822;2023-04-30T01:46:53;6.00;99.90
24446;DHT22;13347;50.984;5.822;2023-04-30T01:49:24;6.20;99.90
24446;DHT22;13347;50.984;5.822;2023-04-30T01:51:55;6.30;99.90
24446;DHT22;13347;50.984;5.822;2023-04-30T01:54:25;6.20;99.90
24446;DHT22;13347;50.984;5.822;2023-04-30T01:56:58;6.20;99.90
24446;DHT22;13347;50.984;5.822;2023-04-30T01:59:30;6.20;99.90
24446;DHT22;13347;50.984;5.822;2023-04-30T02:01:57;6.10;99.90
24446;DHT22;13347;50.984;5.822;2023-04-30T02:04:24;6.20;99.90
24446;DHT22;13347;50.984;5.822;2023-04-30T02:06:54;6.20;99.90
24446;DHT22;13347;50.984;5.822;2023-04-30T02:09:21;6.20;99.90
24446;DHT22;13347;50.984;5.822;2023-04-30T02:11:48;6.20;99.90
24446;DHT22;13347;50.984;5.822;2023-04-30T02:14:15;6.10;99.90
24446;DHT22;13347;50.984;5.822;2023-04-30T02:16:43;5.90;99.90
24446;DHT22;13347;50.984;5.822;2023-04-30T02:19:10;5.80;99.90
24446;DHT22;13347;50.984;5.822;2023-04-30T02:21:37;5.60;99.90
24446;DHT22;13347;50.984;5.822;2023-04-30T22:52:26;10.60;1.00
24446;DHT22;13347;50.984;5.822;2023-04-30T22:54:54;10.60;1.00
24446;DHT22;13347;50.984;5.822;2023-04-30T22:57:21;10.70;1.00
24446;DHT22;13347;50.984;5.822;2023-04-30T22:59:48;10.80;1.00
24446;DHT22;13347;50.984;5.822;2023-04-30T23:02:15;10.70;1.00
24446;DHT22;13347;50.984;5.822;2023-04-30T23:04:42;10.70;1.00
24446;DHT22;13347;50.984;5.822;2023-04-30T23:07:09;10.60;1.00
24446;DHT22;13347;50.984;5.822;2023-04-30T23:09:37;10.50;1.00
24446;DHT22;13347;50.984;5.822;2023-04-30T23:12:04;10.60;57.80
24446;DHT22;13347;50.984;5.822;2023-04-30T23:14:31;10.50;99.90
24446;DHT22;13347;50.984;5.822;2023-04-30T23:16:58;10.50;99.90
24446;DHT22;13347;50.984;5.822;2023-04-30T23:19:25;10.40;99.90
24446;DHT22;13347;50.984;5.822;2023-04-30T23:21:52;10.30;99.90
24446;DHT22;13347;50.984;5.822;2023-04-30T23:24:19;10.20;99.90
24446;DHT22;13347;50.984;5.822;2023-04-30T23:26:47;10.10;99.90
24446;DHT22;13347;50.984;5.822;2023-04-30T23:29:14;10.10;1.00
24446;DHT22;13347;50.984;5.822;2023-04-30T23:31:41;10.10;1.00
24446;DHT22;13347;50.984;5.822;2023-04-30T23:34:08;10.10;1.00
24446;DHT22;13347;50.984;5.822;2023-04-30T23:36:35;10.20;1.00
24446;DHT22;13347;50.984;5.822;2023-04-30T23:39:02;10.10;1.00
24446;DHT22;13347;50.984;5.822;2023-04-30T23:41:29;10.20;1.00
24446;DHT22;13347;50.984;5.822;2023-04-30T23:43:58;10.10;1.00
24446;DHT22;13347;50.984;5.822;2023-04-30T23:46:24;10.10;1.00
24446;DHT22;13347;50.984;5.822;2023-04-30T23:48:51;10.10;1.00
24446;DHT22;13347;50.984;5.822;2023-04-30T23:51:18;10.10;1.00
24446;DHT22;13347;50.984;5.822;2023-04-30T23:53:46;10.10;1.00
24446;DHT22;13347;50.984;5.822;2023-04-30T23:56:14;10.10;1.00
24446;DHT22;13347;50.984;5.822;2023-04-30T23:58:41;10.10;1.00
